Time;durP1;ratioP1;P1;durP2;ratioP2;P2;SDS_P1;SDS_P2;PMS_P1;PMS_P2;Temp;Humidity;BMP_temperature;BMP_pressure;BME280_temperature;BME280_humidity;BME280_pressure;Samples;Min_cycle;Max_cycle;Signal;HPM_P1;HPM_P2
2021/12/04 00:00:25;;;;;;;22.35;9.43;;;;;;;-0.31;71.56;99947.64;1671471;85;27438;-79
2021/12/04 00:02:54;;;;;;;19.35;9.53;;;;;;;-0.31;71.59;99947.64;1672238;85;25368;-80
2021/12/04 00:05:21;;;;;;;23.85;10.38;;;;;;;-0.33;71.67;99940.84;1671872;84;25862;-79
2021/12/04 00:07:48;;;;;;;21.00;12.13;;;;;;;-0.36;71.73;99947.67;1671638;83;25657;-79
2021/12/04 00:10:21;;;;;;;22.60;9.60;;;;;;;-0.36;71.79;99952.46;1672394;84;25823;-79
2021/12/04 00:12:44;;;;;;;27.60;10.25;;;;;;;-0.40;71.83;99947.12;1666297;85;27415;-79
2021/12/04 00:15:11;;;;;;;21.30;10.23;;;;;;;-0.40;71.88;99946.27;1670466;84;25823;-78
2021/12/04 00:17:37;;;;;;;25.48;11.12;;;;;;;-0.44;71.92;99947.52;1671777;85;25751;-79
2021/12/04 00:20:06;;;;;;;22.90;9.80;;;;;;;-0.45;72.04;99943.23;1673309;84;25764;-79
2021/12/04 00:22:32;;;;;;;21.27;9.88;;;;;;;-0.44;72.09;99933.05;1671735;83;25867;-80
2021/12/04 00:24:58;;;;;;;24.50;10.48;;;;;;;-0.45;72.07;99933.52;1671763;85;27525;-80
2021/12/04 00:27:25;;;;;;;21.50;10.18;;;;;;;-0.45;72.12;99938.78;1671249;85;25878;-79
2021/12/04 00:29:51;;;;;;;23.60;10.15;;;;;;;-0.45;72.16;99937.46;1671455;84;25948;-79
2021/12/04 00:32:27;;;;;;;22.65;10.10;;;;;;;-0.50;72.13;99930.95;1671839;85;26533;-79
2021/12/04 00:34:54;;;;;;;20.05;10.38;;;;;;;-0.52;72.21;99927.63;1671564;84;25791;-79
2021/12/04 00:50:56;;;;;;;22.62;10.78;;;;;;;-0.58;72.87;99900.06;1617532;88;27487;-79
2021/12/04 00:53:22;;;;;;;19.70;10.25;;;;;;;-0.60;72.91;99898.05;1618444;88;25929;-79
2021/12/04 00:55:49;;;;;;;15.80;9.15;;;;;;;-0.62;72.96;99890.75;1621676;88;25330;-80
2021/12/04 00:58:15;;;;;;;22.80;9.68;;;;;;;-0.62;73.11;99889.44;1623139;88;25521;-79
2021/12/04 01:00:41;;;;;;;20.10;9.20;;;;;;;-0.59;73.18;99887.02;1622003;88;26606;-79
2021/12/04 01:03:08;;;;;;;22.48;10.28;;;;;;;-0.59;73.17;99876.50;1622090;87;27528;-79
2021/12/04 01:05:35;;;;;;;20.10;9.18;;;;;;;-0.60;73.27;99877.48;1652712;86;25905;-79
2021/12/04 01:08:01;;;;;;;24.43;10.25;;;;;;;-0.58;73.37;99871.13;1622739;88;25976;-79
2021/12/04 01:10:27;;;;;;;18.60;9.53;;;;;;;-0.57;73.42;99874.09;1621876;86;26216;-79
2021/12/04 01:12:56;;;;;;;18.77;10.03;;;;;;;-0.50;73.57;99879.17;1622738;87;26101;-80
2021/12/04 01:15:22;;;;;;;19.48;9.58;;;;;;;-0.49;73.49;99870.30;1621675;88;28404;-79
2021/12/04 01:17:48;;;;;;;20.08;9.70;;;;;;;-0.49;73.49;99876.88;1622481;88;26048;-80
2021/12/04 01:20:14;;;;;;;18.62;9.73;;;;;;;-0.49;73.49;99870.30;1621852;87;25819;-80
2021/12/04 01:22:40;;;;;;;26.68;11.65;;;;;;;-0.50;73.46;99871.29;1623235;87;26682;-79
2021/12/04 01:25:09;;;;;;;22.05;11.73;;;;;;;-0.51;73.43;99866.17;1654718;85;25615;-79
2021/12/04 01:27:42;;;;;;;22.75;11.45;;;;;;;-0.51;73.49;99863.03;1659394;85;26965;-79
2021/12/04 01:30:07;;;;;;;23.85;11.43;;;;;;;-0.51;73.49;99867.48;1623645;85;26681;-79
2021/12/04 01:32:33;;;;;;;25.95;12.43;;;;;;;-0.55;73.55;99856.37;1622713;88;25871;-79
2021/12/04 01:34:59;;;;;;;23.10;12.23;;;;;;;-0.55;73.46;99859.48;1622495;88;26222;-79
2021/12/04 01:37:25;;;;;;;23.25;11.75;;;;;;;-0.55;73.48;99860.33;1622243;87;25905;-79
2021/12/04 01:39:52;;;;;;;25.40;12.53;;;;;;;-0.55;73.51;99859.48;1621298;88;27521;-79
2021/12/04 01:42:20;;;;;;;25.32;10.93;;;;;;;-0.58;73.32;99853.20;1670735;85;26487;-79
2021/12/04 01:44:51;;;;;;;24.60;11.63;;;;;;;-0.59;73.29;99852.36;1670861;85;26006;-79
2021/12/04 01:47:20;;;;;;;29.92;13.35;;;;;;;-0.58;73.41;99853.20;1671163;83;26242;-80
2021/12/04 01:49:52;;;;;;;25.70;13.32;;;;;;;-0.59;73.53;99847.58;1670732;85;26476;-79
2021/12/04 01:52:18;;;;;;;26.10;12.88;;;;;;;-0.61;73.45;99842.45;1672494;84;27481;-79
2021/12/04 01:54:47;;;;;;;25.15;11.53;;;;;;;-0.61;73.52;99834.56;1671941;85;25972;-79
2021/12/04 01:57:15;;;;;;;29.57;12.63;;;;;;;-0.61;73.42;99833.25;1646684;85;25372;-80
2021/12/04 01:59:43;;;;;;;25.08;11.35;;;;;;;-0.64;73.51;99826.94;1671919;84;25978;-79
2021/12/04 02:02:09;;;;;;;29.30;13.70;;;;;;;-0.63;73.62;99823.83;1671573;83;26397;-80
2021/12/04 02:04:36;;;;;;;26.77;14.13;;;;;;;-0.64;73.61;99832.70;1671777;85;27437;-79
2021/12/04 02:07:04;;;;;;;26.27;12.60;;;;;;;-0.65;73.66;99825.29;1670932;85;25949;-80
2021/12/04 02:09:33;;;;;;;27.07;13.55;;;;;;;-0.64;73.63;99824.81;1671379;85;25816;-78
2021/12/04 02:11:59;;;;;;;26.10;12.85;;;;;;;-0.63;73.62;99822.04;1672419;85;25670;-79
2021/12/04 02:14:25;;;;;;;31.93;13.22;;;;;;;-0.63;73.63;99815.94;1672129;84;25720;-79
2021/12/04 02:16:51;;;;;;;28.83;14.23;;;;;;;-0.66;73.66;99810.46;1672294;83;28220;-79
2021/12/04 02:19:18;;;;;;;26.15;13.00;;;;;;;-0.66;73.60;99806.52;1671872;85;25620;-79
2021/12/04 02:21:44;;;;;;;26.23;13.65;;;;;;;-0.67;73.57;99802.23;1671542;85;25765;-79
2021/12/04 02:24:10;;;;;;;27.52;13.08;;;;;;;-0.68;73.55;99804.50;1671203;85;26014;-79
2021/12/04 02:26:37;;;;;;;26.65;13.18;;;;;;;-0.69;73.63;99800.23;1671455;84;26537;-79
2021/12/04 02:29:03;;;;;;;27.75;13.08;;;;;;;-0.69;73.57;99803.34;1672285;85;27461;-80
2021/12/04 02:31:29;;;;;;;30.05;14.03;;;;;;;-0.68;73.67;99803.70;1671288;85;25812;-80
2021/12/04 02:33:56;;;;;;;28.90;13.83;;;;;;;-0.68;73.67;99795.81;1671602;85;25896;-79
2021/12/04 02:36:22;;;;;;;27.75;13.62;;;;;;;-0.67;73.86;99788.25;1671978;85;25838;-79
2021/12/04 02:38:51;;;;;;;33.70;15.15;;;;;;;-0.65;73.97;99786.31;1672491;85;26110;-79
2021/12/04 02:41:19;;;;;;;28.70;15.03;;;;;;;-0.65;73.87;99790.27;1671764;84;28330;-79
2021/12/04 02:43:47;;;;;;;31.50;14.33;;;;;;;-0.63;73.97;99787.02;1670663;85;26581;-79
2021/12/04 02:46:15;;;;;;;31.05;15.20;;;;;;;-0.63;73.93;99782.59;1672133;85;26580;-79
2021/12/04 02:48:45;;;;;;;31.95;15.15;;;;;;;-0.62;74.07;99775.03;1671875;85;25748;-79
2021/12/04 02:51:14;;;;;;;37.40;15.40;;;;;;;-0.62;73.96;99785.55;1671932;84;25891;-79
2021/12/04 02:53:40;;;;;;;29.25;14.00;;;;;;;-0.60;73.99;99780.18;1645605;85;28289;-79
2021/12/04 02:56:06;;;;;;;29.45;13.75;;;;;;;-0.57;74.12;99782.52;1671458;85;25982;-79
2021/12/04 02:58:33;;;;;;;30.00;13.20;;;;;;;-0.56;74.03;99773.67;1672116;83;25742;-79
2021/12/04 03:01:02;;;;;;;35.92;14.47;;;;;;;-0.56;73.99;99773.67;1671923;84;25774;-79
2021/12/04 03:03:31;;;;;;;32.40;14.58;;;;;;;-0.54;74.11;99769.95;1671466;85;26535;-79
2021/12/04 03:05:57;;;;;;;36.38;14.78;;;;;;;-0.52;74.25;99769.80;1671662;85;28298;-80
2021/12/04 03:08:25;;;;;;;31.62;14.23;;;;;;;-0.49;74.22;99764.28;1671926;85;25833;-79
2021/12/04 03:10:52;;;;;;;31.40;15.75;;;;;;;-0.48;74.21;99762.81;1672482;83;26493;-79
2021/12/04 03:13:21;;;;;;;30.68;15.18;;;;;;;-0.46;74.23;99751.67;1668452;85;25508;-80
2021/12/04 03:15:49;;;;;;;31.55;14.85;;;;;;;-0.43;74.14;99755.83;1671714;85;25340;-79
2021/12/04 03:18:15;;;;;;;29.95;13.55;;;;;;;-0.44;74.08;99748.89;1671902;84;27536;-79
2021/12/04 03:20:44;;;;;;;27.10;14.10;;;;;;;-0.43;74.13;99746.15;1671564;85;26010;-80
2021/12/04 03:23:17;;;;;;;28.10;13.53;;;;;;;-0.41;74.08;99742.05;1671977;83;25755;-79
2021/12/04 03:25:44;;;;;;;30.75;14.25;;;;;;;-0.40;73.96;99738.44;1646567;85;26233;-79
2021/12/04 03:28:13;;;;;;;28.00;14.78;;;;;;;-0.39;73.94;99729.59;1671503;84;26270;-78
2021/12/04 03:31:07;;;;;;;27.25;13.90;;;;;;;-0.39;74.06;99729.11;1622827;88;27721;-79
2021/12/04 03:41:06;;;;;;;34.78;15.90;;;;;;;-0.38;73.85;99717.61;1619791;88;25779;-79
2021/12/04 03:43:32;;;;;;;33.05;15.35;;;;;;;-0.36;73.86;99713.03;1622484;88;28349;-79
2021/12/04 03:46:03;;;;;;;31.52;14.95;;;;;;;-0.35;73.92;99713.88;1670893;85;25797;-79
2021/12/04 03:51:05;;;;;;;31.95;14.70;;;;;;;-0.36;74.05;99706.45;1670698;85;26549;-78
2021/12/04 03:53:32;;;;;;;28.35;15.70;;;;;;;-0.36;74.00;99708.25;1671008;84;25960;-79
2021/12/04 03:55:58;;;;;;;32.80;15.08;;;;;;;-0.37;74.04;99702.18;1672562;85;27636;-79
2021/12/04 03:58:25;;;;;;;33.80;16.25;;;;;;;-0.36;73.95;99700.36;1672432;85;25805;-79
2021/12/04 04:00:51;;;;;;;33.67;15.58;;;;;;;-0.38;74.00;99695.24;1671247;84;25346;-79
2021/12/04 04:03:18;;;;;;;30.17;14.90;;;;;;;-0.41;73.79;99696.02;1671987;84;26034;-79
2021/12/04 04:05:44;;;;;;;30.50;14.40;;;;;;;-0.40;74.04;99692.40;1672012;85;25739;-79
2021/12/04 04:08:12;;;;;;;29.30;13.48;;;;;;;-0.39;74.09;99693.59;1671074;85;28214;-79
2021/12/04 04:10:38;;;;;;;31.27;14.05;;;;;;;-0.38;73.96;99694.41;1671633;85;25807;-79
2021/12/04 04:13:08;;;;;;;29.05;13.93;;;;;;;-0.39;74.13;99689.66;1671341;85;25738;-78
2021/12/04 04:15:33;;;;;;;29.02;13.45;;;;;;;-0.37;74.20;99694.28;1671123;85;26396;-79
2021/12/04 04:17:59;;;;;;;25.92;12.98;;;;;;;-0.34;74.23;99687.41;1671598;85;25988;-79
2021/12/04 04:20:26;;;;;;;30.37;14.23;;;;;;;-0.35;74.10;99687.09;1671798;85;27486;-79
2021/12/04 04:22:52;;;;;;;26.27;13.20;;;;;;;-0.30;74.15;99687.98;1672070;83;25925;-79
2021/12/04 04:25:18;;;;;;;29.07;13.55;;;;;;;-0.30;74.04;99684.84;1672287;85;25957;-79
2021/12/04 04:27:45;;;;;;;30.30;13.72;;;;;;;-0.29;73.95;99685.68;1671370;85;25777;-79
2021/12/04 04:30:16;;;;;;;31.73;14.78;;;;;;;-0.29;73.90;99677.31;1672595;85;26518;-79
2021/12/04 04:32:43;;;;;;;29.70;13.15;;;;;;;-0.27;73.99;99677.16;1671952;85;27469;-79
2021/12/04 04:35:14;;;;;;;27.17;13.93;;;;;;;-0.24;74.17;99676.41;1672304;84;25346;-80
2021/12/04 05:02:24;;;;;;;26.75;13.88;;;;;;;-0.17;74.25;99649.86;1664021;85;25914;-79
2021/12/04 05:15:39;;;;;;;28.38;12.10;;;;;;;-0.11;74.62;99641.38;1670311;83;25887;-79
2021/12/04 05:21:04;;;;;;;26.75;12.95;;;;;;;-0.10;74.61;99630.38;1671342;85;25889;-79
2021/12/04 05:23:44;;;;;;;24.23;13.08;;;;;;;-0.08;74.62;99627.95;1670834;84;25785;-79
2021/12/04 05:26:18;;;;;;;23.50;12.10;;;;;;;-0.07;74.69;99628.31;1671936;84;27423;-79
2021/12/04 05:28:46;;;;;;;26.20;12.95;;;;;;;-0.05;74.71;99624.21;1671215;85;25847;-79
2021/12/04 05:31:14;;;;;;;25.37;12.78;;;;;;;-0.04;74.68;99616.16;1656037;85;25985;-79
2021/12/04 05:33:41;;;;;;;29.57;13.72;;;;;;;-0.02;74.84;99615.53;1657470;85;25823;-78
2021/12/04 05:36:09;;;;;;;29.85;13.68;;;;;;;0.00;74.91;99604.37;1653731;85;25939;-80
2021/12/04 05:38:36;;;;;;;22.67;11.85;;;;;;;0.02;74.74;99607.36;1624760;86;26946;-79
2021/12/04 05:41:04;;;;;;;25.72;12.37;;;;;;;0.02;74.71;99598.14;1622371;87;25803;-79
2021/12/04 05:43:31;;;;;;;25.35;12.45;;;;;;;0.02;74.74;99598.98;1623051;88;26502;-79
2021/12/04 05:46:04;;;;;;;25.75;12.78;;;;;;;0.05;74.77;99605.73;1650293;86;25783;-79
2021/12/04 05:53:39;;;;;;;30.40;13.95;;;;;;;0.07;74.76;99602.47;1618000;86;25919;-79
2021/12/04 05:55:56;;;;;;;28.35;13.43;;;;;;;0.10;74.81;99603.03;1620816;88;26020;-79
2021/12/04 05:58:29;;;;;;;25.90;12.25;;;;;;;0.11;74.79;99609.13;1622493;88;25875;-79
2021/12/04 06:01:00;;;;;;;26.62;12.20;;;;;;;0.14;74.67;99619.36;1622718;88;26530;-80
2021/12/04 06:03:28;;;;;;;22.98;12.13;;;;;;;0.14;74.68;99617.56;1623467;86;27487;-80
2021/12/04 06:05:55;;;;;;;23.87;11.80;;;;;;;0.15;74.71;99622.34;1622411;88;25970;-78
2021/12/04 06:08:21;;;;;;;27.75;12.43;;;;;;;0.16;74.67;99618.25;1621228;87;25800;-79
2021/12/04 06:10:49;;;;;;;23.40;12.45;;;;;;;0.17;74.65;99615.13;1624566;86;26539;-79
2021/12/04 06:13:16;;;;;;;26.05;13.75;;;;;;;0.18;74.48;99616.77;1624951;86;25759;-80
2021/12/04 06:15:43;;;;;;;21.23;11.30;;;;;;;0.18;74.51;99620.24;1662258;85;26877;-80
2021/12/04 06:18:10;;;;;;;22.98;11.15;;;;;;;0.18;74.39;99625.99;1622973;88;25855;-78
2021/12/04 06:23:23;;;;;;;24.12;11.53;;;;;;;0.17;74.39;99626.47;1622740;88;26602;-79
2021/12/04 06:25:49;;;;;;;26.73;12.07;;;;;;;0.19;74.30;99628.50;1622015;88;25948;-80
2021/12/04 06:28:16;;;;;;;24.63;11.63;;;;;;;0.22;74.27;99630.83;1622611;88;27514;-81
2021/12/04 06:30:43;;;;;;;22.90;11.18;;;;;;;0.23;74.33;99633.81;1652971;86;26720;-79
2021/12/04 06:33:12;;;;;;;25.20;12.30;;;;;;;0.25;74.19;99634.50;1652576;86;25877;-79
2021/12/04 06:35:41;;;;;;;23.00;11.48;;;;;;;0.27;74.25;99638.30;1672618;85;26530;-79
2021/12/04 06:38:09;;;;;;;19.15;10.40;;;;;;;0.27;74.15;99635.66;1671301;85;25307;-79
2021/12/04 06:40:38;;;;;;;24.20;11.48;;;;;;;0.30;74.03;99640.66;1672424;85;28083;-79
2021/12/04 06:43:07;;;;;;;22.30;10.53;;;;;;;0.31;74.15;99647.09;1673230;84;25312;-79
2021/12/04 06:45:37;;;;;;;26.05;10.70;;;;;;;0.33;74.14;99650.88;1672811;84;25337;-79
2021/12/04 06:48:10;;;;;;;22.95;11.30;;;;;;;0.34;74.06;99651.23;1670821;84;25841;-79
2021/12/04 06:50:47;;;;;;;27.25;11.70;;;;;;;0.36;74.15;99654.08;1672507;84;29948;-79
2021/12/04 06:53:26;;;;;;;22.73;10.82;;;;;;;0.38;74.09;99653.44;1670942;84;28186;-79
2021/12/04 06:55:50;;;;;;;20.70;11.05;;;;;;;0.39;74.01;99655.08;1623228;88;25856;-80
2021/12/04 06:58:16;;;;;;;19.10;11.43;;;;;;;0.40;74.03;99652.80;1621912;88;25856;-80
2021/12/04 07:00:43;;;;;;;24.35;11.45;;;;;;;0.43;74.02;99651.18;1623825;88;25750;-79
2021/12/04 07:03:10;;;;;;;24.25;11.43;;;;;;;0.45;73.98;99649.23;1621880;87;25852;-79
2021/12/04 07:05:36;;;;;;;20.25;12.15;;;;;;;0.46;73.86;99651.38;1622729;88;28289;-79
2021/12/04 07:08:05;;;;;;;20.62;10.60;;;;;;;0.48;73.88;99643.69;1621766;88;26007;-79
2021/12/04 07:10:33;;;;;;;22.77;10.38;;;;;;;0.51;73.85;99646.00;1621829;88;25948;-79
2021/12/04 07:13:01;;;;;;;21.45;10.10;;;;;;;0.56;73.99;99648.20;1621711;87;25996;-80
2021/12/04 07:15:30;;;;;;;27.95;11.33;;;;;;;0.59;74.04;99654.52;1621751;88;26577;-79
2021/12/04 07:17:57;;;;;;;21.70;11.53;;;;;;;0.60;73.95;99649.56;1622805;88;27468;-79
2021/12/04 07:20:24;;;;;;;27.50;11.95;;;;;;;0.62;73.89;99653.72;1652676;85;26010;-80
2021/12/04 07:22:50;;;;;;;30.82;12.80;;;;;;;0.64;74.04;99647.81;1671300;85;25906;-79
2021/12/04 07:25:17;;;;;;;25.20;12.90;;;;;;;0.66;73.97;99645.86;1659718;85;26563;-79
2021/12/04 07:27:43;;;;;;;25.97;12.10;;;;;;;0.67;73.97;99644.90;1627321;86;25804;-79
2021/12/04 07:30:10;;;;;;;26.15;12.23;;;;;;;0.68;73.84;99640.47;1620100;88;26971;-79
2021/12/04 07:32:37;;;;;;;22.40;11.40;;;;;;;0.69;74.09;99640.31;1649835;85;26050;-80
2021/12/04 07:35:06;;;;;;;24.37;12.07;;;;;;;0.72;73.98;99640.02;1623530;86;25387;-79
2021/12/04 07:37:35;;;;;;;20.88;11.55;;;;;;;0.76;74.07;99632.64;1623702;86;25814;-79
2021/12/04 07:40:01;;;;;;;23.07;12.37;;;;;;;0.78;74.07;99631.52;1628649;86;25828;-79
2021/12/04 07:42:27;;;;;;;23.18;11.22;;;;;;;0.81;74.20;99632.20;1657246;85;28142;-79
2021/12/04 07:44:54;;;;;;;21.07;11.25;;;;;;;0.84;74.26;99627.93;1621785;88;26565;-79
2021/12/04 07:47:20;;;;;;;19.27;10.60;;;;;;;0.85;74.31;99631.77;1622581;87;26029;-80
2021/12/04 07:49:46;;;;;;;21.50;10.08;;;;;;;0.86;74.08;99629.45;1621970;88;26610;-79
2021/12/04 07:52:13;;;;;;;23.75;12.43;;;;;;;0.87;74.12;99632.44;1627697;86;26543;-79
2021/12/04 07:54:39;;;;;;;18.60;10.82;;;;;;;0.89;74.07;99629.16;1656228;85;27461;-79
2021/12/04 07:57:05;;;;;;;21.48;10.65;;;;;;;0.90;74.08;99629.48;1636664;86;25878;-81
2021/12/04 07:59:32;;;;;;;20.37;11.45;;;;;;;0.92;74.12;99624.89;1653807;85;26151;-85
2021/12/04 08:01:59;;;;;;;23.67;11.03;;;;;;;0.95;74.22;99629.05;1632722;86;26526;-85
2021/12/04 08:04:26;;;;;;;26.33;12.50;;;;;;;0.99;74.10;99627.77;1672374;85;25925;-84
2021/12/04 08:06:53;;;;;;;26.42;12.53;;;;;;;1.01;74.10;99631.08;1622361;86;27734;-85
2021/12/04 08:09:21;;;;;;;23.83;12.70;;;;;;;1.03;74.07;99625.16;1621758;85;25805;-84
2021/12/04 08:11:50;;;;;;;28.30;11.73;;;;;;;1.06;74.17;99624.39;1622562;88;25832;-83
2021/12/04 08:14:19;;;;;;;22.22;12.07;;;;;;;1.09;73.83;99620.63;1609697;88;27500;-82
2021/12/04 08:16:49;;;;;;;24.23;11.97;;;;;;;1.10;73.79;99628.87;1621399;87;26045;-80
2021/12/04 08:19:15;;;;;;;22.77;11.73;;;;;;;1.12;73.80;99627.74;1623436;86;28716;-80
2021/12/04 08:21:41;;;;;;;22.45;12.35;;;;;;;1.15;73.85;99616.91;1666728;85;25951;-80
2021/12/04 08:24:09;;;;;;;27.25;12.23;;;;;;;1.19;73.75;99612.15;1669232;85;25781;-79
2021/12/04 08:26:38;;;;;;;26.82;13.45;;;;;;;1.20;73.66;99615.94;1671795;85;25859;-80
2021/12/04 08:29:06;;;;;;;21.45;11.53;;;;;;;1.24;73.81;99621.25;1672633;85;25909;-79
2021/12/04 08:31:32;;;;;;;24.20;12.55;;;;;;;1.28;73.72;99620.48;1665514;85;28178;-80
2021/12/04 08:34:00;;;;;;;24.87;13.13;;;;;;;1.30;73.55;99620.67;1670099;85;25824;-80
2021/12/04 08:36:26;;;;;;;21.65;11.70;;;;;;;1.33;73.62;99613.75;1667429;84;26099;-79
2021/12/04 08:38:52;;;;;;;31.60;15.45;;;;;;;1.37;73.48;99617.74;1672564;85;25843;-80
2021/12/04 08:41:20;;;;;;;27.82;13.58;;;;;;;1.39;73.25;99620.25;1667980;85;25960;-79
2021/12/04 08:43:47;;;;;;;45.67;23.25;;;;;;;1.43;73.32;99617.64;1671680;85;27442;-80
2021/12/04 08:46:16;;;;;;;24.07;14.25;;;;;;;1.46;73.28;99618.64;1671746;83;26542;-79
2021/12/04 08:48:42;;;;;;;30.60;16.40;;;;;;;1.49;73.05;99609.95;1668523;85;25938;-80
2021/12/04 08:51:08;;;;;;;31.33;15.15;;;;;;;1.50;73.07;99608.95;1671781;85;26549;-81
2021/12/04 08:53:35;;;;;;;26.42;12.98;;;;;;;1.52;72.85;99604.83;1672584;85;25810;-80
2021/12/04 08:56:01;;;;;;;37.48;16.97;;;;;;;1.52;72.77;99604.34;1654321;85;27469;-79
2021/12/04 08:58:27;;;;;;;32.93;15.75;;;;;;;1.56;72.89;99602.25;1672072;85;25876;-79
2021/12/04 09:00:59;;;;;;;47.38;22.65;;;;;;;1.58;72.89;99608.68;1671340;85;25926;-79
2021/12/04 09:03:33;;;;;;;43.35;22.40;;;;;;;1.58;72.96;99609.00;1669579;83;25934;-80
2021/12/04 09:06:03;;;;;;;33.60;21.77;;;;;;;1.59;72.59;99609.84;1671519;84;25849;-80
2021/12/04 09:08:32;;;;;;;56.28;37.60;;;;;;;1.61;72.70;99603.91;1672489;84;28232;-79
2021/12/04 09:11:02;;;;;;;22.95;14.38;;;;;;;1.61;72.80;99603.91;1673079;85;25935;-80
2021/12/04 09:13:29;;;;;;;23.80;12.68;;;;;;;1.65;72.79;99601.81;1672105;85;25862;-80
2021/12/04 09:15:57;;;;;;;35.28;22.25;;;;;;;1.67;72.94;99603.29;1672091;83;25999;-80
2021/12/04 09:18:25;;;;;;;30.85;19.00;;;;;;;1.71;72.89;99603.31;1668475;85;25889;-79
2021/12/04 09:20:54;;;;;;;29.23;15.72;;;;;;;1.74;72.83;99596.91;1667091;85;28313;-83
2021/12/04 09:23:21;;;;;;;71.17;34.83;;;;;;;1.75;72.70;99599.41;1668265;84;25903;-82
2021/12/04 09:25:53;;;;;;;71.85;34.80;;;;;;;1.79;72.94;99592.83;1672930;85;25792;-80
2021/12/04 09:28:42;;;;;;;60.67;31.93;;;;;;;1.84;72.85;99597.65;1671237;84;26029;-79
2021/12/04 10:01:37;;;;;;;29.87;17.80;;;;;;;1.71;74.83;99587.47;1650003;85;27491;-80
2021/12/04 10:12:28;;;;;;;16.57;9.90;;;;;;;1.74;75.89;99584.54;1644118;86;25924;-79
2021/12/04 10:15:17;;;;;;;23.57;13.60;;;;;;;1.79;75.91;99569.07;1648883;85;27560;-80
2021/12/04 10:33:40;;;;;;;21.27;12.50;;;;;;;2.11;74.89;99544.16;1671803;84;25766;-80
2021/12/04 10:36:07;;;;;;;22.20;12.45;;;;;;;2.14;74.21;99546.95;1671712;85;25936;-79
2021/12/04 10:38:44;;;;;;;22.62;12.60;;;;;;;2.16;74.01;99549.77;1669037;85;25587;-80
2021/12/04 10:41:16;;;;;;;24.43;14.83;;;;;;;2.21;73.67;99550.62;1672366;85;27555;-79
2021/12/04 10:43:43;;;;;;;24.60;12.95;;;;;;;2.23;73.70;99549.48;1671844;83;25884;-79
2021/12/04 10:46:15;;;;;;;26.75;13.98;;;;;;;2.28;73.54;99544.55;1671028;84;25743;-79
2021/12/04 10:48:49;;;;;;;21.35;12.58;;;;;;;2.32;73.58;99543.24;1665295;84;26542;-79
2021/12/04 10:51:33;;;;;;;23.75;12.75;;;;;;;2.37;73.40;99541.93;1671203;85;25825;-79
2021/12/04 10:54:04;;;;;;;25.00;12.55;;;;;;;2.40;73.11;99545.55;1665907;85;27505;-80
2021/12/04 10:59:22;;;;;;;23.83;12.78;;;;;;;2.46;72.97;99543.62;1621318;87;25940;-79
2021/12/04 11:01:52;;;;;;;21.60;12.00;;;;;;;2.50;72.58;99546.27;1621074;88;26711;-80
2021/12/04 11:18:52;;;;;;;27.50;13.18;;;;;;;2.68;71.84;99526.64;1655867;85;25769;-79
2021/12/04 11:21:50;;;;;;;;;;;;;;;2.71;71.96;99525.01;1679007;85;27687;-79
2021/12/04 11:24:32;;;;;;;24.77;15.08;;;;;;;2.74;71.60;99526.47;1644798;85;26461;-81
2021/12/04 11:38:06;;;;;;;32.95;19.20;;;;;;;2.79;71.29;99538.23;1626266;86;26230;-81
2021/12/04 11:43:19;;;;;;;33.45;17.60;;;;;;;2.83;71.10;99537.41;1653850;85;44912;-81
2021/12/04 11:48:36;;;;;;;26.33;14.87;;;;;;;2.86;70.88;99526.52;1633408;86;27478;-80
2021/12/04 11:51:06;;;;;;;20.55;12.40;;;;;;;2.86;70.71;99526.02;1622383;87;25934;-81
2021/12/04 11:53:33;;;;;;;19.67;11.43;;;;;;;2.88;70.72;99529.33;1644579;86;25403;-80
2021/12/04 11:56:00;;;;;;;240.52;106.03;;;;;;;2.91;70.41;99524.19;1626865;86;26673;-81
2021/12/04 11:58:33;;;;;;;175.38;79.37;;;;;;;2.94;70.64;99526.02;1646881;85;26292;-82
2021/12/04 12:01:04;;;;;;;103.85;50.38;;;;;;;2.96;70.67;99524.04;1648371;85;27503;-80
2021/12/04 12:03:35;;;;;;;54.15;32.65;;;;;;;2.98;70.46;99525.19;1643874;85;25985;-79
2021/12/04 12:06:06;;;;;;;40.23;21.30;;;;;;;3.01;70.50;99520.91;1645197;87;26598;-79
2021/12/04 12:08:37;;;;;;;29.82;17.73;;;;;;;3.04;70.53;99525.84;1650769;85;26098;-80
2021/12/04 12:11:23;;;;;;;;;;;;;;;3.07;70.57;99522.39;1679306;84;25900;-80
2021/12/04 12:26:38;;;;;;;24.23;13.40;;;;;;;3.91;69.02;99508.17;1806386;79;25603;-80
2021/12/04 12:32:02;;;;;;;26.70;14.00;;;;;;;3.72;69.45;99500.63;1778204;80;28346;-80
2021/12/04 12:36:02;;;;;;;21.68;11.65;;;;;;;3.67;69.50;99496.35;1738574;82;25315;-80
2021/12/04 12:36:55;;;;;;;20.30;12.37;;;;;;;3.62;69.67;99484.11;1700147;83;26500;-79
2021/12/04 12:39:21;;;;;;;21.55;12.68;;;;;;;3.60;69.86;99485.27;1709543;83;25795;-81
2021/12/04 12:41:49;;;;;;;26.05;14.87;;;;;;;3.59;69.93;99492.90;1710174;83;25975;-80
2021/12/04 12:44:29;;;;;;;27.50;13.35;;;;;;;3.58;70.16;99497.36;1695843;84;28292;-80
2021/12/04 12:47:05;;;;;;;25.48;14.05;;;;;;;3.56;70.24;99494.05;1725043;83;25979;-79
2021/12/04 12:49:39;;;;;;;30.12;16.45;;;;;;;3.56;70.08;99499.84;1696078;84;25791;-80
2021/12/04 12:52:14;;;;;;;28.77;14.25;;;;;;;3.55;70.04;99502.18;1725089;83;25863;-80
2021/12/04 12:55:06;;;;;;;25.92;14.65;;;;;;;3.52;70.11;99503.34;1696391;83;25890;-79
2021/12/04 12:57:39;;;;;;;21.30;12.30;;;;;;;3.49;70.22;99506.80;1698435;83;28374;-80
2021/12/04 13:12:10;;;;;;;23.20;13.50;;;;;;;3.41;70.67;99502.84;1697815;83;27569;-79
2021/12/04 13:14:45;;;;;;;28.77;15.00;;;;;;;3.38;70.60;99505.84;1684246;83;25809;-80
2021/12/04 13:17:16;;;;;;;24.55;14.35;;;;;;;3.36;70.53;99500.70;1686173;83;25880;-80
2021/12/04 13:19:48;;;;;;;29.15;13.90;;;;;;;3.36;70.62;99498.05;1686333;85;25955;-80
2021/12/04 13:22:20;;;;;;;32.70;15.83;;;;;;;3.35;70.59;99497.73;1686140;83;25872;-79
2021/12/04 13:24:50;;;;;;;34.43;16.65;;;;;;;3.34;70.60;99499.20;1685949;84;27555;-79
2021/12/04 13:29:53;;;;;;;36.33;17.40;;;;;;;3.34;70.76;99500.04;1686300;85;25329;-79
2021/12/04 13:32:33;;;;;;;33.23;16.48;;;;;;;3.37;70.80;99506.83;1686013;84;25963;-79
2021/12/04 13:35:09;;;;;;;36.57;16.37;;;;;;;3.35;70.84;99503.03;1686175;84;25995;-79
2021/12/04 13:37:37;;;;;;;29.57;15.50;;;;;;;3.35;70.80;99503.03;1685603;84;27543;-79
2021/12/04 13:40:08;;;;;;;32.17;17.10;;;;;;;3.35;70.77;99496.41;1685852;85;25880;-79
2021/12/04 13:42:38;;;;;;;37.78;15.88;;;;;;;3.36;70.73;99498.05;1685546;83;25781;-79
2021/12/04 13:45:09;;;;;;;29.10;17.27;;;;;;;3.35;70.42;99495.09;1685639;84;25852;-78
2021/12/04 13:47:37;;;;;;;28.00;14.68;;;;;;;3.30;70.34;99492.59;1685592;85;25825;-80
2021/12/04 13:50:44;;;;;;;23.52;13.58;;;;;;;3.26;70.24;99497.89;1685869;85;27444;-79
2021/12/04 13:52:50;;;;;;;36.05;16.27;;;;;;;3.20;70.12;99495.44;1681473;83;25845;-80
2021/12/04 13:55:18;;;;;;;21.70;10.93;;;;;;;3.14;70.15;99500.88;1703673;83;25863;-80
2021/12/04 13:57:45;;;;;;;23.67;13.10;;;;;;;3.08;69.88;99496.74;1699002;83;25877;-79
2021/12/04 14:00:15;;;;;;;21.75;12.90;;;;;;;3.00;70.13;99501.55;1699238;83;25824;-79
2021/12/04 14:02:41;;;;;;;20.57;12.43;;;;;;;2.94;70.50;99496.93;1699835;83;27461;-79
2021/12/04 14:05:21;;;;;;;22.60;11.93;;;;;;;2.92;70.84;99498.91;1700255;83;25931;-79
2021/12/04 14:07:57;;;;;;;30.82;11.53;;;;;;;2.93;70.90;99497.10;1689525;83;26007;-79
2021/12/04 14:10:30;;;;;;;21.17;14.38;;;;;;;2.90;70.95;99499.58;1708506;83;25916;-80
2021/12/04 14:13:01;;;;;;;24.02;13.70;;;;;;;2.86;71.08;99498.74;1696093;83;25796;-79
2021/12/04 14:15:27;;;;;;;22.17;13.68;;;;;;;2.87;71.18;99497.25;1702432;83;28339;-79
2021/12/04 14:18:01;;;;;;;25.85;12.13;;;;;;;2.87;71.28;99493.28;1697613;83;25537;-79
2021/12/04 14:20:29;;;;;;;21.17;11.68;;;;;;;2.85;71.10;99488.66;1708518;83;25880;-78
2021/12/04 14:22:57;;;;;;;23.83;12.33;;;;;;;2.81;71.20;99487.82;1685209;83;26831;-79
2021/12/04 14:25:26;;;;;;;24.65;12.43;;;;;;;2.81;71.40;99485.17;1684674;84;25785;-79
2021/12/04 14:27:56;;;;;;;76.33;34.98;;;;;;;2.79;71.40;99488.00;1683640;84;27058;-79
2021/12/04 14:30:30;;;;;;;117.97;65.57;;;;;;;2.79;71.64;99483.19;1684087;84;26498;-79
2021/12/04 14:32:56;;;;;;;52.50;31.85;;;;;;;2.74;71.60;99478.88;1661826;85;25353;-79
2021/12/04 14:35:31;;;;;;;39.65;25.65;;;;;;;2.69;71.74;99484.69;1684024;84;26074;-79
2021/12/04 14:37:59;;;;;;;83.45;51.33;;;;;;;2.67;71.92;99487.99;1683775;85;26519;-79